• Join FlightAware (Why Join?)
  • Login
  • US Flag 
03:09AM EDT


 

Airport Tracker/Info


-or-


 

Live Flight TrackerFlight Track Log ✈ N1ER ✈ 26-Jul-2014 ✈ ENRO / RRS - KDAB

Flight Track Log - Related Links

Times and Time Zones

All times are in EDT time to prevent confusion due to time zone crossing. See the N1ER flight status page for this flight to view local times or setup timezone preferences in your user account.

Time Position Orientation Groundspeed Altitude Reporting Facility
EDT Latitude Longitude Course Direction KTS MPH feet Rate Location/Type
01:04PM 31.2508 -85.2619 122° Southeast 134 154 8,400  Level Jacksonville Center
01:05PM 31.2347 -85.2322 122° Southeast 107 123 9,200 480 Climbing Jacksonville Center
01:06PM 31.2144 -85.1906 120° Southeast 135 155 9,500 120 Climbing Jacksonville Center
01:07PM 31.1925 -85.1439 119° Southeast 166 191 9,500  Level Jacksonville Center
01:08PM 31.1722 -85.1044 121° Southeast 169 194 9,500 -60 Level Jacksonville Center
01:09PM 31.1458 -85.0553 122° Southeast 166 191 9,400 -60 Descending Jacksonville Center
01:10PM 31.1258 -85.0136 119° Southeast 163 188 9,400  Level Jacksonville Center
01:11PM 31.1014 -84.9644 120° Southeast 160 184 9,500  Climbing Jacksonville Center
01:12PM 31.0833 -84.9278 120° Southeast 161 185 9,500  Level Jacksonville Center
01:13PM 31.0631 -84.8836 118° Southeast 162 186 9,500  Level Jacksonville Center
01:39PM 30.5692 -83.6406 121° Southeast 257 296 9,500  Level Jacksonville Center
01:40PM 30.4628 -83.7698 121° Southeast  Level FlightAware Approximate
01:40PM 30.5675 -83.5875 92° East 203 234 9,500  Level Jacksonville Center
01:41PM 30.4410 -83.7271 121° Southeast  Level FlightAware Approximate
01:41PM 30.5781 -83.5294 78° East 169 194 9,400  Level Jacksonville Center
01:42PM 30.4192 -83.6846 121° Southeast  Level FlightAware Approximate
01:42PM 30.5722 -83.4764 97° East 157 181 9,400  Level Jacksonville Center
01:43PM 30.3973 -83.6420 121° Southeast  Level FlightAware Approximate
01:43PM 30.5661 -83.4233 98° East 157 181 9,400  Level Jacksonville Center
01:44PM 30.3755 -83.5995 121° Southeast  Level FlightAware Approximate
01:44PM 30.5350 -83.3869 135° Southeast 152 175 9,400  Level Jacksonville Center
01:45PM 30.5036 -83.3458 132° Southeast 157 181 9,400  Level Jacksonville Center
01:46PM 30.4767 -83.3072 129° Southeast 157 181 9,400  Level Jacksonville Center
01:47PM 30.4456 -83.2661 131° Southeast 157 181 9,500  Climbing Jacksonville Center
01:48PM 30.4186 -83.2322 133° Southeast 162 186 9,400 -60 Descending Jacksonville Center
01:49PM 30.3872 -83.1936 133° Southeast 162 186 9,400  Level Jacksonville Center
01:50PM 30.3603 -83.1525 127° Southeast 162 186 9,400  Level Jacksonville Center
01:51PM 30.3289 -83.1117 132° Southeast 162 186 9,400  Level Jacksonville Center
01:52PM 30.2978 -83.0731 133° Southeast 162 186 9,400  Level Jacksonville Center
01:53PM 30.2644 -83.0344 135° Southeast 162 186 9,400  Level Jacksonville Center
01:54PM 30.2353 -82.9983 133° Southeast 162 186 9,400  Level Jacksonville Center
01:55PM 30.2058 -82.9575 130° Southeast 162 186 9,400 -60 Level Jacksonville Center
01:57PM 30.1433 -82.8806 133° Southeast 162 186 9,300 -240 Descending Jacksonville Center
01:58PM 30.1100 -82.8372 132° Southeast 167 192 8,800 -600 Descending Jacksonville Center
01:59PM 30.0744 -82.7989 137° Southeast 174 200 8,100 -840 Descending Jacksonville Center
02:00PM 30.0283 -82.7511 138° Southeast 181 208 7,100 -900 Descending Jacksonville Center
02:01PM 29.9992 -82.7175 135° Southeast 184 212 6,400 -1,020 Descending Jacksonville Center
02:02PM 29.9867 -82.7056 140° Southeast 185 213 6,000 -1,020 Descending Jacksonville Center
02:02PM 29.9678 -82.6744 125° Southeast 184 212 5,400 -900 Descending Jacksonville Center
02:03PM 29.9531 -82.6647 150° Southeast 173 199 5,100 -840 Descending Jacksonville Center
02:03PM 29.9322 -82.6433 138° Southeast 173 199 4,600 -720 Descending Jacksonville Center
02:04PM 29.9197 -82.6361 153° Southeast 147 169 4,400 -600 Descending Jacksonville Center
02:04PM 29.9031 -82.6147 132° Southeast 159 183 4,000 -600 Descending Jacksonville Center
02:05PM 29.8903 -82.6050 147° Southeast 140 161 3,800 -600 Descending Jacksonville Center
02:05PM 29.8736 -82.5836 132° Southeast 147 169 3,400 -600 Descending Jacksonville Center
02:06PM 29.8653 -82.5692 124° Southeast 145 167 3,200 -540 Descending Jacksonville Center
02:06PM 29.8528 -82.5453 121° Southeast 141 162 2,900 -540 Descending Jacksonville Center
02:07PM 29.8422 -82.5286 126° Southeast 148 170 2,700 -540 Descending Jacksonville Center
02:07PM 29.8297 -82.5072 124° Southeast 141 162 2,400 -480 Descending Jacksonville Center
02:08PM 29.8150 -82.4881 132° Southeast 147 169 2,200 -540 Descending Jacksonville Center
02:08PM 29.8064 -82.4664 115° Southeast 141 162 1,900 -300 Descending Jacksonville Center
02:09PM 29.7939 -82.4497 131° Southeast 145 167 1,900 -120 Level Jacksonville Center
02:09PM 29.7856 -82.4308 117° Southeast 146 168 1,800  Descending Jacksonville Center
02:10PM 29.7792 -82.4164 117° Southeast 138 159 1,900  Climbing Jacksonville Center
02:10PM 29.7856 -82.4308 297° West 146 168 1,800 60 Descending Jacksonville Center
02:11PM 29.7664 -82.3758 112° Southeast 134 154 2,000 -180 Climbing Jacksonville Center
02:12PM 29.7622 -82.3231 95° East 137 158 1,600 -420 Descending Jacksonville Center
02:13PM 29.7494 -82.2992 122° Southeast 128 147 1,300 -480 Descending Jacksonville Center
02:14PM 29.7264 -82.2636 127° Southeast 117 135 700 -240 Descending Jacksonville Center
02:16PM 29.6847 -82.2900 116° Southeast 99 114 600  Descending Jacksonville Center
02:16PM 29.6806 -82.2950 226° Southwest 96 110 800 780 Climbing Jacksonville Center
02:17PM 29.6514 -82.2903 172° South 107 123 1,600 780 Climbing Jacksonville Center
02:18PM 29.6408 -82.2569 110° East 117 135 2,500 420 Climbing Jacksonville Center
02:19PM 29.6239 -82.2092 112° Southeast 161 185 2,500  Level Jacksonville Center
02:20PM 29.6047 -82.1664 117° Southeast 150 173 2,500  Level Jacksonville Center
02:21PM 29.5856 -82.1211 116° Southeast 151 174 2,500  Level Jacksonville Center
02:22PM 29.5667 -82.0783 117° Southeast 151 174 2,500  Level Jacksonville Center
02:23PM 29.5475 -82.0403 120° Southeast 144 166 2,500  Level Jacksonville Center
02:24PM 29.5286 -81.9975 117° Southeast 153 176 2,500  Level Jacksonville Center
02:25PM 29.5072 -81.9500 117° Southeast 150 173 2,500  Level Jacksonville Center
02:26PM 29.4839 -81.9097 124° Southeast 152 175 2,500  Level Jacksonville Center
02:28PM 29.4669 -81.8692 116° Southeast 140 161 2,500  Level Jacksonville Center
02:29PM 29.4478 -81.8289 119° Southeast 139 160 2,500  Level Jacksonville Center
02:30PM 29.4267 -81.7839 118° Southeast 140 161 2,500  Level Jacksonville Center
02:31PM 29.4053 -81.7458 123° Southeast 140 161 2,500  Level Jacksonville Center
02:32PM 29.3883 -81.7081 117° Southeast 145 167 2,500  Level Jacksonville Center
02:33PM 29.3692 -81.6678 119° Southeast 147 169 2,500  Level Jacksonville Center
02:34PM 29.3542 -81.6250 112° Southeast 147 169 2,500  Level Jacksonville Center
02:35PM 29.3369 -81.5706 110° East 150 173 2,500  Level Jacksonville Center
02:36PM 29.3197 -81.5256 114° Southeast 150 173 2,500  Level Jacksonville Center
02:37PM 29.3111 -81.4922 106° East 150 173 2,500  Level Jacksonville Center
02:38PM 29.2958 -81.4425 109° East 152 175 2,600  Climbing Jacksonville Center
02:39PM 29.2847 -81.3878 103° East 151 174 2,600  Level Jacksonville Center
02:40PM 29.2886 -81.3497 83° East 156 180 2,600  Level Jacksonville Center
02:41PM 29.2878 -81.2925 91° East 153 176 2,600  Level Jacksonville Center
02:42PM 29.2872 -81.2425 91° East 154 177 2,600  Level Jacksonville Center
02:43PM 29.2908 -81.1925 85° East 157 181 2,600 -60 Level Jacksonville Center
02:44PM 29.2922 -81.1450 88° East 133 153 2,500 -360 Descending Jacksonville Center
02:45PM 29.2894 -81.1044 94° East 131 151 1,900 -600 Descending Jacksonville Center
02:46PM 29.2889 -81.0664 91° East 131 151 1,400 -480 Descending Jacksonville Center
02:47PM 29.2739 -81.0406 124° Southeast 119 137 1,000 -240 Descending Jacksonville Center
02:48PM 29.2444 -81.0219 151° Southeast 116 133 1,000  Level Jacksonville Center
02:49PM 29.2108 -81.0106 164° South 98 113 1,000 -180 Level Jacksonville Center
02:50PM 29.1925 -81.0300 223° Southwest 78 90 600 -420 Descending Jacksonville Center
02:52PM 29.1799 -81.0581 283° West  Level Estimated
02:59PM 29.1799 -81.0581 115° Southeast  Level Estimated
03:00PM 29.1799 -81.0581 295° West  Level Estimated
03:01PM 29.1799 -81.0581 295° West  Level Estimated
03:02PM 29.1799 -81.0581 295° West  Level Estimated